Time;durP1;ratioP1;P1;durP2;ratioP2;P2;SDS_P1;SDS_P2;PMS_P1;PMS_P2;Temp;Humidity;BMP_temperature;BMP_pressure;BME280_temperature;BME280_humidity;BME280_pressure;Samples;Min_cycle;Max_cycle;Signal;HPM_P1;HPM_P2
2021/09/06 00:01:03;;;;;;;2.00;1.90;;;15.70;93.40;;;;;;5013710;28;20055;-79
2021/09/06 00:03:30;;;;;;;1.60;1.60;;;15.80;93.20;;;;;;5017225;28;20030;-78
2021/09/06 00:05:58;;;;;;;1.60;1.60;;;16.00;93.50;;;;;;5018666;28;20049;-77
2021/09/06 00:08:26;;;;;;;1.83;1.80;;;16.00;91.60;;;;;;5019780;28;20050;-77
2021/09/06 00:11:12;;;;;;;1.70;1.70;;;16.10;91.80;;;;;;5023789;28;20022;-77
2021/09/06 00:13:41;;;;;;;1.70;1.70;;;16.20;91.50;;;;;;5021951;28;20109;-76
2021/09/06 00:16:09;;;;;;;1.90;1.80;;;16.30;91.10;;;;;;5022357;28;20025;-76
2021/09/06 00:18:37;;;;;;;1.92;1.83;;;16.30;91.50;;;;;;5022749;28;20068;-77
2021/09/06 00:21:06;;;;;;;1.60;1.60;;;16.40;91.30;;;;;;5022164;28;20046;-78
2021/09/06 00:23:35;;;;;;;1.58;1.58;;;16.40;90.80;;;;;;5021910;28;20097;-78
2021/09/06 00:26:03;;;;;;;1.85;1.67;;;16.70;90.40;;;;;;5020533;28;20026;-77
2021/09/06 00:28:31;;;;;;;1.50;1.40;;;16.60;90.10;;;;;;5020266;28;20017;-77
2021/09/06 00:30:59;;;;;;;1.83;1.73;;;16.50;89.60;;;;;;5021128;28;20021;-78
2021/09/06 00:33:26;;;;;;;1.60;1.60;;;16.80;88.80;;;;;;5021491;28;20474;-78
2021/09/06 00:35:54;;;;;;;1.92;1.83;;;17.00;87.00;;;;;;5020321;28;20121;-79
2021/09/06 00:38:22;;;;;;;2.00;1.90;;;17.10;87.50;;;;;;5021184;28;20042;-76
2021/09/06 00:40:52;;;;;;;2.15;1.95;;;17.30;87.20;;;;;;5023770;28;20018;-78
2021/09/06 00:43:19;;;;;;;2.03;1.88;;;17.50;86.20;;;;;;5007611;28;20052;-77
2021/09/06 00:45:47;;;;;;;1.70;1.60;;;17.40;82.70;;;;;;5026213;28;20022;-78
2021/09/06 00:48:18;;;;;;;1.70;1.60;;;17.60;83.20;;;;;;5024631;28;20669;-78
2021/09/06 00:50:46;;;;;;;2.00;1.90;;;17.80;79.50;;;;;;5022248;28;20384;-77
2021/09/06 00:53:15;;;;;;;1.60;1.50;;;17.80;81.70;;;;;;5019327;28;20093;-76
2021/09/06 00:55:43;;;;;;;1.65;1.60;;;18.00;81.10;;;;;;5019390;28;20060;-77
2021/09/06 00:58:11;;;;;;;1.77;1.70;;;17.90;79.50;;;;;;5022673;28;20018;-77
2021/09/06 01:00:38;;;;;;;1.90;1.65;;;17.90;78.90;;;;;;5025501;28;20022;-77
2021/09/06 01:03:05;;;;;;;1.65;1.55;;;18.00;78.70;;;;;;5022985;28;20404;-78
2021/09/06 01:05:33;;;;;;;1.40;1.40;;;18.00;79.70;;;;;;5018600;28;20502;-78
2021/09/06 01:08:00;;;;;;;2.03;1.88;;;18.10;77.80;;;;;;5024332;28;20042;-77
2021/09/06 01:10:28;;;;;;;1.45;1.30;;;18.20;77.30;;;;;;5022512;28;20045;-76
2021/09/06 01:12:55;;;;;;;1.85;1.75;;;18.10;76.40;;;;;;5023254;28;20018;-77
2021/09/06 01:15:23;;;;;;;2.17;1.50;;;18.30;75.30;;;;;;5023178;28;20022;-77
2021/09/06 01:17:50;;;;;;;1.77;1.40;;;18.50;75.10;;;;;;5026118;28;20026;-78
2021/09/06 01:20:18;;;;;;;4.72;1.80;;;18.40;74.40;;;;;;5024869;28;20053;-77
2021/09/06 01:22:45;;;;;;;4.25;2.17;;;18.10;77.60;;;;;;5026120;28;20030;-77
2021/09/06 01:25:17;;;;;;;1.90;1.80;;;18.30;75.50;;;;;;5024158;28;20522;-76
2021/09/06 01:27:45;;;;;;;2.00;1.90;;;18.40;77.10;;;;;;5026501;28;20022;-77
2021/09/06 01:30:14;;;;;;;1.80;1.70;;;18.80;76.50;;;;;;5023984;28;20025;-77
2021/09/06 01:32:41;;;;;;;1.67;1.67;;;18.90;73.80;;;;;;5027821;28;20458;-77
2021/09/06 01:35:09;;;;;;;1.70;1.70;;;18.80;74.50;;;;;;5030082;28;20022;-78
2021/09/06 01:37:38;;;;;;;1.67;1.67;;;19.00;74.40;;;;;;5030446;28;20133;-77
2021/09/06 01:40:06;;;;;;;1.70;1.60;;;19.30;75.30;;;;;;5029957;28;20030;-78
2021/09/06 01:42:34;;;;;;;1.80;1.70;;;19.00;75.80;;;;;;5032081;28;20018;-78
2021/09/06 01:45:02;;;;;;;2.22;2.03;;;18.80;73.40;;;;;;5030600;28;20431;-77
2021/09/06 01:47:30;;;;;;;3.75;2.28;;;18.70;76.30;;;;;;5028684;28;20140;-77
2021/09/06 01:49:57;;;;;;;2.63;2.30;;;18.60;75.90;;;;;;5019726;28;20030;-77
2021/09/06 01:52:26;;;;;;;1.90;1.60;;;18.80;74.90;;;;;;5018895;28;20470;-76
2021/09/06 01:54:53;;;;;;;1.98;1.40;;;18.70;73.50;;;;;;5017053;28;20026;-76
2021/09/06 01:57:20;;;;;;;3.80;1.85;;;18.70;74.20;;;;;;5020265;28;20045;-77
2021/09/06 01:59:48;;;;;;;3.00;2.00;;;18.40;75.10;;;;;;5019510;28;20081;-77
2021/09/06 02:02:15;;;;;;;3.50;2.20;;;18.60;74.30;;;;;;5015622;28;20026;-75
2021/09/06 02:04:42;;;;;;;2.65;1.90;;;18.80;76.20;;;;;;5015133;28;20026;-76
2021/09/06 02:07:10;;;;;;;2.47;2.28;;;18.80;75.90;;;;;;5015387;28;20037;-76
2021/09/06 02:09:37;;;;;;;3.28;2.30;;;18.70;74.80;;;;;;5016515;28;20057;-75
2021/09/06 02:12:04;;;;;;;3.20;2.13;;;18.90;76.20;;;;;;5017645;28;20018;-75
2021/09/06 02:14:32;;;;;;;3.03;2.10;;;19.10;75.90;;;;;;5015425;28;20022;-77
2021/09/06 02:16:59;;;;;;;2.22;1.83;;;19.40;74.70;;;;;;5020860;28;20121;-77
2021/09/06 02:19:27;;;;;;;3.17;2.45;;;19.40;74.00;;;;;;5016433;28;20052;-75
2021/09/06 02:21:54;;;;;;;6.57;2.05;;;19.00;75.30;;;;;;5015684;28;20041;-76
2021/09/06 02:24:21;;;;;;;4.35;2.13;;;18.60;76.80;;;;;;5016493;28;20026;-77
2021/09/06 02:26:49;;;;;;;2.15;1.83;;;18.00;76.40;;;;;;5025850;28;20379;-78
2021/09/06 02:29:16;;;;;;;3.63;2.40;;;17.80;77.10;;;;;;5023970;28;20021;-77
2021/09/06 02:31:44;;;;;;;2.20;2.00;;;18.10;79.60;;;;;;5022630;28;20053;-77
2021/09/06 02:34:12;;;;;;;2.28;1.90;;;18.30;75.90;;;;;;5024158;28;20014;-76
2021/09/06 02:36:39;;;;;;;4.93;2.00;;;18.70;75.50;;;;;;5014606;28;20030;-77
2021/09/06 02:39:06;;;;;;;3.40;2.13;;;18.80;76.20;;;;;;5019877;28;20048;-77
2021/09/06 02:41:34;;;;;;;3.38;2.30;;;19.00;76.10;;;;;;5020282;28;20101;-76
2021/09/06 02:44:01;;;;;;;4.32;2.20;;;19.10;78.80;;;;;;5018913;28;20026;-76
2021/09/06 02:46:29;;;;;;;4.80;2.42;;;19.50;77.20;;;;;;5019965;28;20414;-76
2021/09/06 02:48:56;;;;;;;4.43;2.88;;;19.60;78.00;;;;;;5018032;28;20022;-76
2021/09/06 02:51:23;;;;;;;3.95;2.03;;;19.30;75.90;;;;;;5019622;28;20017;-77
2021/09/06 02:53:51;;;;;;;2.53;2.05;;;19.30;75.70;;;;;;5021487;28;20018;-77
2021/09/06 02:56:18;;;;;;;4.40;2.25;;;19.40;77.90;;;;;;5021353;28;20055;-77
2021/09/06 02:58:45;;;;;;;4.63;2.25;;;19.40;76.60;;;;;;5017037;28;20025;-77
2021/09/06 03:01:12;;;;;;;3.22;2.22;;;19.30;76.10;;;;;;5020296;28;20018;-77
2021/09/06 03:03:40;;;;;;;4.53;2.15;;;19.20;77.10;;;;;;5016665;28;20022;-76
2021/09/06 03:06:08;;;;;;;3.83;1.90;;;19.30;77.30;;;;;;5020645;28;20071;-76
2021/09/06 03:08:35;;;;;;;6.35;2.17;;;19.30;76.60;;;;;;5021663;28;20036;-77
2021/09/06 03:11:03;;;;;;;4.70;2.45;;;19.40;78.60;;;;;;5017300;28;20021;-76
2021/09/06 03:13:31;;;;;;;6.95;2.63;;;19.50;77.30;;;;;;5018197;28;20022;-76
2021/09/06 03:15:58;;;;;;;2.88;2.42;;;19.20;76.70;;;;;;5014421;28;20029;-75
2021/09/06 03:18:26;;;;;;;4.88;2.15;;;19.60;77.30;;;;;;5017279;28;20386;-76
2021/09/06 03:20:53;;;;;;;2.38;2.17;;;19.30;77.40;;;;;;5018740;28;20032;-76
2021/09/06 03:23:20;;;;;;;3.65;2.30;;;19.30;77.10;;;;;;5018283;28;20014;-76
2021/09/06 03:25:48;;;;;;;2.97;2.28;;;19.50;78.30;;;;;;5017132;28;20018;-75
2021/09/06 03:28:15;;;;;;;5.50;2.20;;;19.60;76.40;;;;;;5018900;28;20026;-77
2021/09/06 03:30:42;;;;;;;4.53;2.20;;;19.30;78.10;;;;;;5018955;28;20028;-77
2021/09/06 03:33:13;;;;;;;4.35;2.40;;;19.50;79.10;;;;;;5020401;28;20022;-78
2021/09/06 03:35:43;;;;;;;3.85;2.45;;;19.70;78.60;;;;;;5023969;28;20049;-77
2021/09/06 03:38:12;;;;;;;4.93;2.40;;;19.40;78.30;;;;;;5022417;28;20380;-77
2021/09/06 03:40:40;;;;;;;4.40;2.55;;;19.50;79.10;;;;;;5023994;28;20030;-77
2021/09/06 03:43:07;;;;;;;5.88;2.53;;;19.60;76.20;;;;;;5023765;28;20070;-77
2021/09/06 03:45:35;;;;;;;8.25;2.53;;;19.30;75.80;;;;;;5020717;28;20029;-76
2021/09/06 03:48:02;;;;;;;7.90;2.70;;;19.40;75.80;;;;;;5023839;28;20030;-77
2021/09/06 03:50:30;;;;;;;7.25;3.00;;;19.00;74.60;;;;;;5022273;28;20056;-77
2021/09/06 03:52:57;;;;;;;7.22;2.85;;;18.90;76.10;;;;;;5023733;28;20022;-77
2021/09/06 03:55:24;;;;;;;6.97;2.80;;;19.00;76.00;;;;;;5021639;28;20041;-76
2021/09/06 03:57:52;;;;;;;5.35;2.50;;;19.10;73.60;;;;;;5021843;28;20050;-78
2021/09/06 04:00:19;;;;;;;4.55;2.35;;;19.00;73.10;;;;;;5022071;28;20045;-77
2021/09/06 04:02:47;;;;;;;5.25;2.55;;;18.80;73.00;;;;;;5021014;28;20049;-77
2021/09/06 04:05:14;;;;;;;7.05;2.97;;;18.60;72.60;;;;;;5020144;28;20057;-77
2021/09/06 04:07:41;;;;;;;7.20;2.83;;;18.80;75.30;;;;;;5022216;28;20022;-77
2021/09/06 04:10:10;;;;;;;6.28;3.00;;;18.70;71.70;;;;;;5022182;28;20391;-77
2021/09/06 04:12:37;;;;;;;3.75;2.63;;;18.90;74.10;;;;;;5022282;28;20058;-77
2021/09/06 04:15:08;;;;;;;4.80;2.65;;;18.90;73.10;;;;;;5022267;28;20014;-78
2021/09/06 04:17:36;;;;;;;8.32;2.80;;;18.90;72.80;;;;;;5024994;28;20026;-77
2021/09/06 04:20:04;;;;;;;6.47;3.05;;;18.60;74.30;;;;;;5024393;28;20048;-77
2021/09/06 04:22:32;;;;;;;8.38;3.38;;;18.70;75.70;;;;;;5026059;28;20022;-77
2021/09/06 04:25:02;;;;;;;7.93;2.58;;;18.70;74.30;;;;;;5025638;28;20030;-78
2021/09/06 04:27:29;;;;;;;5.68;2.25;;;18.60;75.80;;;;;;5025305;28;20049;-77
2021/09/06 04:29:56;;;;;;;6.22;2.85;;;18.60;75.70;;;;;;5021738;28;20092;-77
2021/09/06 04:32:24;;;;;;;7.32;2.58;;;18.70;77.60;;;;;;5017811;28;20068;-78
2021/09/06 04:34:51;;;;;;;6.28;2.40;;;19.10;76.80;;;;;;5018415;28;20018;-78
2021/09/06 04:37:18;;;;;;;5.28;2.78;;;19.10;75.40;;;;;;5016713;28;20496;-78
2021/09/06 04:39:46;;;;;;;4.65;2.80;;;19.00;74.30;;;;;;5020069;28;20541;-78
2021/09/06 04:42:13;;;;;;;3.55;2.58;;;18.70;75.10;;;;;;5017107;28;20029;-78
2021/09/06 04:44:41;;;;;;;6.85;3.10;;;18.50;76.60;;;;;;5019456;28;20064;-77
2021/09/06 04:47:08;;;;;;;7.47;2.95;;;18.40;75.50;;;;;;5019131;28;20044;-76
2021/09/06 04:49:39;;;;;;;7.55;3.10;;;18.50;75.90;;;;;;5024257;28;20022;-78
2021/09/06 04:52:06;;;;;;;4.05;2.80;;;18.60;75.20;;;;;;5020221;28;20026;-76
2021/09/06 04:54:33;;;;;;;7.97;2.72;;;18.60;76.80;;;;;;5020086;28;20056;-77
2021/09/06 04:57:01;;;;;;;5.95;2.85;;;18.90;77.10;;;;;;5023397;28;20026;-77
2021/09/06 04:59:28;;;;;;;5.95;2.58;;;18.40;74.70;;;;;;5023421;28;20109;-78
2021/09/06 05:01:55;;;;;;;4.75;2.70;;;18.30;76.30;;;;;;5025899;28;20025;-77
2021/09/06 05:04:23;;;;;;;6.63;2.72;;;18.40;75.80;;;;;;5024326;28;20025;-77
2021/09/06 05:06:50;;;;;;;6.85;2.97;;;18.20;75.10;;;;;;5025283;28;20061;-78
2021/09/06 05:09:17;;;;;;;6.07;2.72;;;18.00;74.90;;;;;;5023280;28;20108;-77
2021/09/06 05:11:45;;;;;;;7.10;2.88;;;17.90;77.30;;;;;;5018415;28;20025;-77
2021/09/06 05:14:12;;;;;;;13.63;3.10;;;17.90;78.90;;;;;;5020505;28;20089;-78
2021/09/06 05:16:39;;;;;;;8.88;2.60;;;18.10;78.70;;;;;;5022003;28;20030;-78
2021/09/06 05:19:07;;;;;;;8.40;3.03;;;18.10;79.20;;;;;;5021291;28;20120;-78
2021/09/06 05:21:34;;;;;;;7.60;2.72;;;18.10;76.80;;;;;;5020772;28;20010;-76
2021/09/06 05:24:02;;;;;;;7.93;3.25;;;17.90;76.80;;;;;;5022269;28;20026;-77
2021/09/06 05:26:30;;;;;;;6.80;3.30;;;17.70;78.60;;;;;;5017452;28;20026;-78
2021/09/06 05:28:57;;;;;;;7.22;2.70;;;17.70;78.80;;;;;;5020888;28;20065;-78
2021/09/06 05:31:24;;;;;;;8.73;3.42;;;17.90;79.00;;;;;;5023357;28;20491;-77
2021/09/06 05:33:52;;;;;;;7.35;3.00;;;17.80;79.10;;;;;;5019551;28;20029;-78
2021/09/06 05:36:19;;;;;;;6.88;3.00;;;17.80;79.50;;;;;;5025530;28;20025;-78
2021/09/06 05:38:47;;;;;;;8.02;3.10;;;17.70;78.50;;;;;;5022610;28;20053;-79
2021/09/06 05:41:15;;;;;;;5.53;2.58;;;17.60;79.20;;;;;;5021871;28;20049;-79
2021/09/06 05:43:43;;;;;;;7.10;3.00;;;17.40;80.10;;;;;;5023361;28;20487;-78
2021/09/06 05:46:10;;;;;;;8.40;3.17;;;17.40;83.00;;;;;;5024842;28;20038;-77
2021/09/06 05:48:41;;;;;;;7.63;3.20;;;17.50;81.30;;;;;;5024179;28;20022;-79
2021/09/06 05:51:08;;;;;;;4.93;2.72;;;17.50;82.30;;;;;;5022218;28;20049;-78
2021/09/06 05:53:35;;;;;;;8.10;3.28;;;17.30;80.80;;;;;;5022293;28;20601;-78
2021/09/06 05:56:03;;;;;;;7.72;3.22;;;17.20;82.30;;;;;;5019833;28;20048;-80
2021/09/06 05:58:30;;;;;;;8.95;3.28;;;17.10;81.80;;;;;;5022562;28;20026;-79
2021/09/06 06:00:58;;;;;;;7.30;3.00;;;17.10;83.20;;;;;;5025781;28;20030;-80
2021/09/06 06:03:25;;;;;;;9.80;3.70;;;17.00;82.90;;;;;;5026314;28;20022;-79
2021/09/06 06:05:52;;;;;;;8.38;3.28;;;17.00;83.60;;;;;;5027167;28;20041;-78
2021/09/06 06:08:19;;;;;;;11.68;4.07;;;17.00;82.90;;;;;;5024512;28;20052;-77
2021/09/06 06:10:47;;;;;;;9.55;3.88;;;17.10;83.60;;;;;;5024355;28;20107;-77
2021/09/06 06:13:14;;;;;;;11.18;3.70;;;17.10;84.00;;;;;;5024736;28;20041;-77
2021/09/06 06:15:41;;;;;;;10.95;3.90;;;17.10;84.20;;;;;;5022137;28;20033;-78
2021/09/06 06:18:09;;;;;;;8.60;4.00;;;17.10;83.40;;;;;;5021024;28;20033;-78
2021/09/06 06:20:36;;;;;;;12.20;4.07;;;17.10;85.70;;;;;;5020463;28;20483;-79
2021/09/06 06:23:04;;;;;;;9.30;3.65;;;17.00;84.50;;;;;;5020582;28;20060;-79
2021/09/06 06:25:31;;;;;;;7.85;3.50;;;17.00;84.90;;;;;;5026471;28;20026;-78
2021/09/06 06:27:58;;;;;;;6.85;3.10;;;16.90;84.30;;;;;;5023385;28;20025;-78
2021/09/06 06:30:26;;;;;;;8.30;3.22;;;16.80;84.50;;;;;;5022237;28;20030;-79
2021/09/06 06:32:53;;;;;;;8.00;3.22;;;16.70;83.80;;;;;;5021649;28;20017;-79
2021/09/06 06:35:21;;;;;;;7.72;3.30;;;16.60;85.60;;;;;;5020149;28;20022;-78
2021/09/06 06:37:48;;;;;;;7.25;3.17;;;16.50;85.00;;;;;;5017593;28;20022;-78
2021/09/06 06:40:16;;;;;;;9.73;3.33;;;16.40;85.90;;;;;;5016284;28;20026;-78
2021/09/06 06:42:43;;;;;;;10.43;3.58;;;16.30;87.10;;;;;;5014747;28;20076;-78
2021/09/06 06:45:11;;;;;;;10.05;3.92;;;16.30;89.10;;;;;;5014454;28;20022;-79
2021/09/06 06:47:38;;;;;;;8.80;4.18;;;16.20;88.60;;;;;;5015691;28;20022;-79
2021/09/06 06:50:06;;;;;;;10.15;3.53;;;16.20;88.90;;;;;;5013421;28;20483;-79
2021/09/06 06:52:35;;;;;;;9.57;3.88;;;16.10;89.00;;;;;;5014313;28;20076;-79
2021/09/06 06:55:02;;;;;;;8.68;3.13;;;16.10;89.40;;;;;;5014182;28;20387;-79
2021/09/06 06:57:30;;;;;;;10.48;3.10;;;16.00;90.00;;;;;;5013318;28;20593;-78
2021/09/06 06:59:57;;;;;;;9.25;3.58;;;16.00;88.50;;;;;;5014299;28;20034;-78
2021/09/06 07:02:24;;;;;;;10.05;3.47;;;15.90;88.50;;;;;;5014573;28;20029;-79
2021/09/06 07:04:54;;;;;;;7.28;3.40;;;15.80;89.60;;;;;;5013878;28;20057;-79
2021/09/06 07:07:22;;;;;;;8.13;3.75;;;15.70;89.20;;;;;;5013808;28;20030;-80
2021/09/06 07:09:49;;;;;;;9.10;3.15;;;15.70;90.50;;;;;;5014435;28;20030;-81
2021/09/06 07:12:16;;;;;;;8.90;3.50;;;15.60;90.30;;;;;;5013046;28;20021;-80
2021/09/06 07:14:44;;;;;;;8.32;3.25;;;15.60;90.70;;;;;;5014290;28;20045;-81
2021/09/06 07:17:11;;;;;;;8.23;3.42;;;15.50;90.80;;;;;;5015533;28;20523;-81
2021/09/06 07:19:39;;;;;;;7.80;3.45;;;15.50;91.80;;;;;;5014165;28;20168;-78
2021/09/06 07:22:06;;;;;;;7.82;3.75;;;15.40;91.00;;;;;;5014430;28;20030;-82
2021/09/06 07:24:34;;;;;;;10.55;3.50;;;15.30;91.40;;;;;;5013909;28;20021;-79
2021/09/06 07:27:01;;;;;;;10.15;3.20;;;15.20;92.30;;;;;;5013049;28;20026;-79
2021/09/06 07:29:28;;;;;;;10.50;3.30;;;15.20;91.90;;;;;;5013049;28;20026;-78
2021/09/06 07:31:56;;;;;;;9.18;3.22;;;15.10;91.80;;;;;;5014553;28;20049;-79
2021/09/06 07:34:25;;;;;;;12.52;4.03;;;15.10;91.70;;;;;;5012385;28;20494;-80
2021/09/06 07:36:52;;;;;;;13.90;4.90;;;15.10;92.00;;;;;;5014234;28;20026;-80
2021/09/06 07:39:19;;;;;;;11.57;4.82;;;15.10;92.60;;;;;;5012472;28;20120;-78
2021/09/06 07:41:47;;;;;;;9.00;4.00;;;15.00;92.80;;;;;;5014293;28;20052;-77
2021/09/06 07:44:14;;;;;;;20.83;11.48;;;14.90;92.90;;;;;;5015910;28;20026;-77
2021/09/06 07:46:42;;;;;;;11.65;5.18;;;14.90;94.20;;;;;;5013993;28;20026;-78
2021/09/06 07:49:09;;;;;;;13.73;4.32;;;14.90;93.60;;;;;;5013023;28;20109;-78
2021/09/06 07:51:36;;;;;;;11.15;4.47;;;14.80;93.90;;;;;;5013363;28;20084;-79
2021/09/06 07:54:06;;;;;;;12.85;4.88;;;14.70;94.10;;;;;;5013600;28;20033;-78
2021/09/06 07:56:35;;;;;;;10.55;3.85;;;14.70;93.90;;;;;;5014138;28;20026;-77
2021/09/06 07:59:02;;;;;;;13.18;3.72;;;14.70;94.40;;;;;;5014101;28;20022;-78
2021/09/06 08:01:29;;;;;;;13.27;4.82;;;14.60;94.80;;;;;;5012939;28;20483;-77
2021/09/06 08:03:57;;;;;;;14.20;5.28;;;14.60;95.40;;;;;;5015870;28;20038;-79
2021/09/06 08:06:24;;;;;;;9.65;4.80;;;14.60;95.40;;;;;;5016583;28;20072;-79
2021/09/06 08:08:52;;;;;;;14.70;5.22;;;14.60;95.60;;;;;;5017339;28;20104;-79
2021/09/06 08:11:19;;;;;;;15.27;5.32;;;14.60;95.80;;;;;;5017244;28;20063;-78
2021/09/06 08:13:46;;;;;;;14.75;5.10;;;14.50;97.20;;;;;;5016301;28;20029;-78
2021/09/06 08:16:14;;;;;;;18.63;5.30;;;14.50;96.90;;;;;;5017596;28;20029;-78
2021/09/06 08:18:41;;;;;;;13.57;4.40;;;14.40;97.60;;;;;;5017562;28;20466;-77
2021/09/06 08:21:09;;;;;;;15.05;6.28;;;14.30;98.00;;;;;;5015610;28;20483;-77
2021/09/06 08:23:36;;;;;;;14.07;5.35;;;14.30;98.40;;;;;;5017478;28;20049;-77
2021/09/06 08:26:05;;;;;;;8.98;4.43;;;14.20;98.20;;;;;;5017012;28;20025;-77
2021/09/06 08:28:32;;;;;;;13.23;4.90;;;14.20;98.70;;;;;;5015830;28;20112;-78
2021/09/06 08:31:00;;;;;;;15.30;4.78;;;14.20;99.90;;;;;;5016618;28;20093;-78
2021/09/06 08:33:28;;;;;;;13.35;4.40;;;14.10;99.00;;;;;;5017476;28;20022;-77
2021/09/06 08:35:55;;;;;;;18.30;5.55;;;14.20;98.90;;;;;;5016458;28;20018;-78
2021/09/06 08:38:23;;;;;;;14.63;5.13;;;14.30;99.30;;;;;;5020212;28;20031;-77
2021/09/06 08:40:51;;;;;;;17.40;4.50;;;14.20;99.20;;;;;;5021528;28;20022;-77
2021/09/06 08:43:18;;;;;;;16.80;4.88;;;14.20;99.40;;;;;;5021029;28;20078;-79
2021/09/06 08:45:46;;;;;;;13.32;4.85;;;14.20;99.60;;;;;;5022873;28;20104;-77
2021/09/06 08:48:13;;;;;;;20.55;5.78;;;14.10;99.90;;;;;;5018139;28;20036;-78
2021/09/06 08:50:42;;;;;;;11.38;4.80;;;14.10;99.90;;;;;;5016825;28;20117;-77
2021/09/06 08:53:09;;;;;;;17.75;4.75;;;14.00;99.90;;;;;;5022693;28;20022;-77
2021/09/06 08:55:39;;;;;;;21.75;6.32;;;14.00;99.90;;;;;;5020419;28;20061;-77
2021/09/06 08:58:07;;;;;;;11.85;5.93;;;13.90;99.90;;;;;;5024709;28;20029;-77
2021/09/06 09:00:34;;;;;;;13.73;4.60;;;13.80;99.90;;;;;;5017634;28;20022;-78
2021/09/06 09:03:01;;;;;;;11.88;5.72;;;14.00;99.90;;;;;;5017437;28;20029;-78
2021/09/06 09:05:29;;;;;;;16.73;5.22;;;14.00;99.90;;;;;;5018179;28;20045;-78
2021/09/06 09:07:57;;;;;;;13.63;4.70;;;13.90;99.90;;;;;;5016546;28;20108;-77
2021/09/06 09:10:37;;;;;;;17.33;4.75;;;14.00;99.90;;;;;;5015008;28;20032;-78
2021/09/06 09:13:11;;;;;;;20.15;5.43;;;14.00;99.90;;;;;;5016633;28;20018;-78
2021/09/06 09:15:39;;;;;;;19.08;5.38;;;13.90;99.90;;;;;;5015087;28;20038;-78
2021/09/06 09:18:06;;;;;;;16.00;4.95;;;14.00;99.90;;;;;;5016570;28;20092;-79
2021/09/06 09:20:41;;;;;;;15.23;4.88;;;14.00;99.90;;;;;;5016889;28;20054;-80
2021/09/06 09:23:10;;;;;;;19.17;4.80;;;14.00;99.90;;;;;;5017048;28;20446;-78
2021/09/06 09:25:38;;;;;;;17.08;4.90;;;14.10;99.90;;;;;;5016495;28;20080;-79
2021/09/06 09:28:05;;;;;;;12.23;4.43;;;14.10;99.90;;;;;;5016742;28;20124;-79
2021/09/06 09:30:36;;;;;;;17.20;5.20;;;13.90;99.90;;;;;;5017339;28;20022;-79
2021/09/06 09:33:11;;;;;;;;;;;13.90;99.90;;;;;;5022100;28;20430;-79
2021/09/06 09:35:39;;;;;;;17.60;5.13;;;13.90;99.90;;;;;;5023769;28;19906;-79
2021/09/06 09:38:10;;;;;;;20.23;5.15;;;14.00;99.90;;;;;;5022377;28;20060;-78
2021/09/06 09:40:47;;;;;;;14.23;4.25;;;13.90;99.90;;;;;;5019768;28;20412;-78
2021/09/06 09:43:15;;;;;;;17.27;4.50;;;14.00;99.90;;;;;;5015431;28;20058;-79
2021/09/06 09:45:42;;;;;;;14.38;4.72;;;14.00;99.90;;;;;;5015824;28;20052;-77
2021/09/06 09:48:10;;;;;;;14.43;5.10;;;14.00;99.90;;;;;;5014705;28;20033;-78
2021/09/06 09:50:38;;;;;;;18.70;5.65;;;14.00;99.90;;;;;;5014542;28;20022;-78
2021/09/06 09:53:05;;;;;;;16.75;5.35;;;13.90;99.90;;;;;;5015589;28;20479;-78
2021/09/06 09:55:34;;;;;;;15.13;4.80;;;13.90;99.90;;;;;;5015990;28;20061;-78
2021/09/06 09:58:02;;;;;;;15.82;4.38;;;13.90;99.90;;;;;;5014788;28;20021;-77
2021/09/06 10:00:30;;;;;;;19.45;5.53;;;13.90;99.90;;;;;;5015614;28;20530;-79
2021/09/06 10:03:03;;;;;;;15.45;4.65;;;13.90;99.90;;;;;;5015860;28;20080;-78
2021/09/06 10:05:36;;;;;;;16.75;5.00;;;13.90;99.90;;;;;;5015082;28;20069;-78
2021/09/06 10:08:06;;;;;;;20.35;6.15;;;13.80;99.90;;;;;;5014224;28;20052;-78
2021/09/06 10:10:38;;;;;;;22.02;6.07;;;13.70;99.90;;;;;;5015689;28;20020;-78
2021/09/06 10:13:06;;;;;;;19.83;5.68;;;13.70;99.90;;;;;;5014019;28;20034;-78
2021/09/06 10:15:35;;;;;;;26.00;5.93;;;13.60;99.90;;;;;;5015909;28;20068;-79
2021/09/06 10:18:17;;;;;;;20.33;5.88;;;13.60;99.90;;;;;;5014843;28;20034;-80
2021/09/06 10:20:45;;;;;;;24.92;6.13;;;13.50;99.90;;;;;;5014777;28;20508;-79
2021/09/06 10:23:13;;;;;;;18.92;6.05;;;13.40;99.90;;;;;;5014956;28;20037;-79
2021/09/06 10:25:44;;;;;;;18.27;5.32;;;13.30;99.90;;;;;;5016104;28;20118;-79
2021/09/06 10:28:13;;;;;;;17.42;6.03;;;13.20;99.90;;;;;;5017410;28;20109;-81
2021/09/06 10:30:42;;;;;;;25.58;6.15;;;13.10;99.90;;;;;;5017348;28;20026;-77
2021/09/06 10:33:24;;;;;;;24.98;7.22;;;13.10;99.90;;;;;;5018482;28;20469;-76
2021/09/06 10:36:09;;;;;;;18.33;5.57;;;13.00;99.90;;;;;;4999148;28;20026;-77
2021/09/06 10:38:41;;;;;;;18.30;5.57;;;13.10;99.90;;;;;;5013925;28;20025;-77
2021/09/06 10:41:14;;;;;;;16.92;5.63;;;13.00;99.90;;;;;;5014782;28;20022;-77
2021/09/06 10:43:54;;;;;;;19.77;5.90;;;13.00;99.90;;;;;;5020667;28;20486;-77
2021/09/06 10:46:24;;;;;;;17.23;5.47;;;12.90;99.90;;;;;;5016572;28;20504;-77
2021/09/06 10:48:52;;;;;;;14.63;5.32;;;13.00;99.90;;;;;;5020395;28;20121;-78
2021/09/06 10:51:30;;;;;;;18.45;5.78;;;12.90;99.90;;;;;;5019613;28;20030;-78
2021/09/06 10:54:01;;;;;;;17.88;5.55;;;12.90;99.90;;;;;;5025683;28;20541;-77
2021/09/06 10:56:30;;;;;;;17.38;5.80;;;12.90;99.90;;;;;;5021707;28;20025;-77
2021/09/06 10:58:59;;;;;;;16.83;5.78;;;12.80;99.90;;;;;;5020125;28;20038;-76
2021/09/06 11:01:28;;;;;;;15.48;4.95;;;12.80;99.90;;;;;;4998541;28;20065;-77
2021/09/06 11:03:55;;;;;;;20.98;6.50;;;12.70;99.90;;;;;;5017100;28;20018;-76
2021/09/06 11:06:27;;;;;;;15.35;4.82;;;12.60;99.90;;;;;;5020907;28;20046;-78
2021/09/06 11:08:54;;;;;;;19.88;5.50;;;12.60;99.90;;;;;;5026524;28;20022;-78
2021/09/06 11:11:28;;;;;;;18.60;5.65;;;12.50;99.90;;;;;;5025658;28;20017;-78
2021/09/06 11:13:55;;;;;;;17.00;5.95;;;12.40;99.90;;;;;;5027300;28;20022;-78
2021/09/06 11:16:33;;;;;;;14.93;5.72;;;12.40;99.90;;;;;;5026391;28;20042;-78
2021/09/06 11:19:11;;;;;;;26.13;6.32;;;12.30;99.90;;;;;;5026037;28;20029;-78
2021/09/06 11:21:39;;;;;;;18.25;5.25;;;12.20;99.90;;;;;;5028234;28;20080;-78
2021/09/06 11:24:06;;;;;;;24.50;6.65;;;12.20;99.90;;;;;;5025968;28;20085;-78
2021/09/06 11:26:33;;;;;;;15.77;5.15;;;12.10;99.90;;;;;;5020658;28;20048;-77
2021/09/06 11:29:01;;;;;;;20.33;5.90;;;12.10;99.90;;;;;;5017940;28;20092;-76
2021/09/06 11:31:30;;;;;;;14.50;5.63;;;12.00;99.90;;;;;;5017507;28;20029;-77
2021/09/06 11:34:09;;;;;;;17.67;5.78;;;12.10;99.90;;;;;;5018441;28;20112;-76
2021/09/06 11:36:36;;;;;;;16.02;6.13;;;12.00;99.90;;;;;;5013357;28;20092;-77
2021/09/06 11:39:08;;;;;;;13.75;5.43;;;12.00;99.90;;;;;;5012193;28;20030;-76
2021/09/06 11:41:41;;;;;;;19.75;6.15;;;12.00;99.90;;;;;;5012991;28;20053;-76
2021/09/06 11:44:10;;;;;;;15.82;5.95;;;12.10;99.90;;;;;;5013978;28;20057;-76
2021/09/06 11:46:42;;;;;;;16.23;6.28;;;12.00;99.90;;;;;;5014243;28;20344;-77
2021/09/06 11:49:11;;;;;;;18.42;5.95;;;12.00;99.90;;;;;;5014319;28;20363;-75
2021/09/06 11:51:38;;;;;;;20.63;5.93;;;11.90;99.90;;;;;;5013681;28;20017;-75
2021/09/06 11:54:10;;;;;;;18.08;5.85;;;11.90;99.90;;;;;;5014094;28;20022;-76
2021/09/06 11:56:37;;;;;;;20.35;6.32;;;11.90;99.90;;;;;;5013568;28;20064;-76
2021/09/06 11:59:05;;;;;;;14.20;6.60;;;11.90;99.90;;;;;;5014755;28;20118;-77
2021/09/06 12:01:37;;;;;;;17.90;6.00;;;11.90;99.90;;;;;;5015731;28;20038;-77
2021/09/06 12:04:10;;;;;;;21.88;6.80;;;11.80;99.90;;;;;;5014328;28;20022;-76
2021/09/06 12:06:39;;;;;;;13.27;6.00;;;11.80;99.90;;;;;;5013449;28;20124;-76
2021/09/06 12:09:08;;;;;;;15.20;6.38;;;11.80;99.90;;;;;;5015144;28;20025;-76
2021/09/06 12:11:40;;;;;;;17.73;6.28;;;11.80;99.90;;;;;;5020661;28;20026;-77
2021/09/06 12:14:09;;;;;;;11.35;5.93;;;11.80;99.90;;;;;;5022339;28;20034;-79
2021/09/06 12:16:37;;;;;;;17.70;6.03;;;11.80;99.90;;;;;;5029232;28;20067;-76
2021/09/06 12:19:17;;;;;;;21.45;6.38;;;11.80;99.90;;;;;;5022887;28;20061;-78
2021/09/06 12:21:45;;;;;;;18.38;6.85;;;11.70;99.90;;;;;;5025388;28;20049;-76
2021/09/06 12:24:13;;;;;;;15.75;6.03;;;11.70;99.90;;;;;;5015739;28;20033;-77
2021/09/06 12:26:48;;;;;;;16.85;6.30;;;11.60;99.90;;;;;;5014374;28;20030;-76
2021/09/06 12:29:34;;;;;;;14.73;6.07;;;11.60;99.90;;;;;;5014566;28;20026;-77
2021/09/06 12:32:02;;;;;;;15.93;5.88;;;11.60;99.90;;;;;;5015560;28;20018;-75
2021/09/06 12:34:32;;;;;;;17.13;6.53;;;11.60;99.90;;;;;;5014153;28;20106;-79
2021/09/06 12:37:04;;;;;;;13.63;5.75;;;11.60;99.90;;;;;;5015096;28;20030;-76
2021/09/06 12:39:34;;;;;;;14.60;5.35;;;11.50;99.90;;;;;;5014365;28;20332;-77
2021/09/06 12:42:03;;;;;;;21.33;6.65;;;11.50;99.90;;;;;;5015401;28;20030;-77
2021/09/06 12:44:31;;;;;;;14.77;6.40;;;11.50;99.90;;;;;;5013837;28;20056;-77
2021/09/06 12:46:58;;;;;;;16.25;6.57;;;11.40;99.90;;;;;;5017074;28;20059;-77
2021/09/06 12:49:27;;;;;;;17.70;6.40;;;11.40;99.90;;;;;;5018698;28;20014;-77